Time;durP1;ratioP1;P1;durP2;ratioP2;P2;SDS_P1;SDS_P2;PMS_P1;PMS_P2;Temp;Humidity;BMP_temperature;BMP_pressure;BME280_temperature;BME280_humidity;BME280_pressure;Samples;Min_cycle;Max_cycle;Signal;HPM_P1;HPM_P2
2023/12/19 00:01:20;;;;;;;29.10;18.52;;;;;;;6.53;91.89;102353.13;3606532;39;20074;-65
2023/12/19 00:03:45;;;;;;;29.25;18.77;;;;;;;6.58;92.05;102351.25;3607804;39;20399;-65
2023/12/19 00:06:11;;;;;;;29.15;18.00;;;;;;;6.58;92.14;102361.94;3604984;39;20073;-65
2023/12/19 00:08:37;;;;;;;25.10;18.17;;;;;;;6.59;92.45;102361.03;3606508;39;20292;-65
2023/12/19 00:11:03;;;;;;;27.58;17.80;;;;;;;6.62;92.64;102366.31;3604269;39;20065;-65
2023/12/19 00:13:28;;;;;;;27.95;18.02;;;;;;;6.64;92.48;102359.16;3608918;39;20128;-65
2023/12/19 00:15:54;;;;;;;27.48;18.50;;;;;;;6.65;91.97;102349.34;3608313;39;20052;-65
2023/12/19 00:18:19;;;;;;;26.95;17.80;;;;;;;6.70;92.55;102352.81;3608009;39;20058;-65
2023/12/19 00:20:45;;;;;;;28.90;19.02;;;;;;;6.69;92.46;102341.25;3607232;39;20058;-64
2023/12/19 00:23:11;;;;;;;29.83;19.33;;;;;;;6.65;93.10;102336.84;3606433;39;20054;-65
2023/12/19 00:25:36;;;;;;;26.67;18.35;;;;;;;6.64;92.73;102329.75;3607388;39;20074;-65
2023/12/19 00:28:02;;;;;;;27.63;18.90;;;;;;;6.66;93.19;102325.28;3609517;39;20046;-65
2023/12/19 00:30:28;;;;;;;27.83;18.48;;;;;;;6.69;92.80;102329.66;3609333;39;20055;-65
2023/12/19 00:32:53;;;;;;;27.27;19.73;;;;;;;6.70;93.06;102326.09;3608060;39;20059;-65
2023/12/19 00:35:19;;;;;;;30.95;20.23;;;;;;;6.48;93.59;102290.94;3607304;39;20412;-65
2023/12/19 00:37:44;;;;;;;32.80;19.45;;;;;;;6.68;93.63;102317.22;3607133;39;20071;-65
2023/12/19 00:40:12;;;;;;;32.83;18.85;;;;;;;6.67;93.75;102300.31;3608130;39;20077;-65
2023/12/19 00:42:38;;;;;;;28.25;19.77;;;;;;;6.70;93.50;102310.94;3611432;39;20287;-65
2023/12/19 00:45:05;;;;;;;29.73;20.05;;;;;;;6.72;93.16;102295.75;3609366;39;20051;-65
2023/12/19 00:47:30;;;;;;;29.35;18.60;;;;;;;6.71;93.42;102301.97;3608494;39;20130;-65
2023/12/19 00:49:56;;;;;;;28.13;19.95;;;;;;;6.60;93.85;102271.97;3605881;39;20316;-65
2023/12/19 00:52:22;;;;;;;26.80;18.33;;;;;;;6.76;93.94;102280.53;3606408;39;20052;-65
2023/12/19 00:54:48;;;;;;;27.05;18.77;;;;;;;6.76;93.72;102276.97;3607307;39;20442;-64
2023/12/19 00:57:13;;;;;;;30.90;19.98;;;;;;;6.76;94.32;102276.97;3608862;39;20070;-64
2023/12/19 00:59:40;;;;;;;32.38;23.08;;;;;;;6.79;93.69;102272.44;3612601;39;20058;-65
2023/12/19 01:02:06;;;;;;;29.30;20.17;;;;;;;6.77;94.64;102268.91;3607516;39;20109;-65
2023/12/19 01:04:31;;;;;;;31.33;20.23;;;;;;;6.79;93.96;102256.41;3605961;39;20063;-65
2023/12/19 01:06:57;;;;;;;25.85;18.38;;;;;;;6.84;93.83;102253.59;3608298;39;20055;-65
2023/12/19 01:09:23;;;;;;;30.08;20.45;;;;;;;6.84;94.09;102258.94;3609209;39;20328;-65
2023/12/19 01:11:49;;;;;;;30.45;19.25;;;;;;;6.80;94.53;102246.59;3608918;39;20047;-65
2023/12/19 01:14:14;;;;;;;31.40;20.20;;;;;;;6.82;94.41;102250.06;3610273;39;20299;-65
2023/12/19 01:16:40;;;;;;;27.45;19.10;;;;;;;6.84;93.91;102242.91;3609251;39;20047;-65
2023/12/19 01:19:09;;;;;;;27.08;18.40;;;;;;;6.84;94.59;102234.91;3607360;39;20435;-65
2023/12/19 01:21:36;;;;;;;28.80;18.83;;;;;;;6.82;95.06;102237.63;3609074;39;20072;-65
2023/12/19 01:24:03;;;;;;;29.92;19.17;;;;;;;6.83;95.08;102238.50;3609206;39;20073;-65
2023/12/19 01:26:29;;;;;;;28.70;18.63;;;;;;;6.90;95.30;102238.28;3606076;39;20055;-65
2023/12/19 01:28:54;;;;;;;25.73;18.05;;;;;;;6.90;95.38;102240.09;3607841;39;20054;-65
2023/12/19 01:31:20;;;;;;;32.92;20.45;;;;;;;6.85;95.46;102233.97;3607361;39;20129;-64
2023/12/19 01:33:46;;;;;;;29.88;19.80;;;;;;;6.86;95.30;102241.09;3606693;39;20051;-65
2023/12/19 01:36:11;;;;;;;33.25;20.08;;;;;;;6.84;95.41;102229.56;3607835;39;20399;-65
2023/12/19 01:38:37;;;;;;;30.80;20.35;;;;;;;6.87;95.88;102233.03;3606537;39;20074;-65
2023/12/19 01:41:02;;;;;;;34.05;20.45;;;;;;;6.88;95.96;102247.25;3608126;39;20051;-64
2023/12/19 01:43:28;;;;;;;30.05;19.92;;;;;;;6.88;95.92;102242.81;3610552;39;21174;-65
2023/12/19 01:45:53;;;;;;;28.55;20.02;;;;;;;6.89;95.98;102246.38;3608440;39;20055;-65
2023/12/19 01:48:22;;;;;;;31.73;20.85;;;;;;;6.90;95.34;102232.06;3606620;39;20059;-65
2023/12/19 01:50:48;;;;;;;31.85;19.83;;;;;;;6.92;95.95;102223.13;3609114;39;20388;-65
2023/12/19 01:53:16;;;;;;;32.00;20.83;;;;;;;6.92;95.47;102227.59;3604963;39;20043;-65
2023/12/19 01:55:42;;;;;;;29.80;20.52;;;;;;;6.92;96.03;102215.09;3606845;39;20432;-64
2023/12/19 01:58:10;;;;;;;32.92;20.75;;;;;;;6.95;95.47;102225.72;3608207;39;20084;-65
2023/12/19 02:00:37;;;;;;;27.63;19.42;;;;;;;6.93;95.58;102226.66;3608096;39;20479;-65
2023/12/19 02:03:05;;;;;;;30.23;19.52;;;;;;;6.80;95.33;102187.78;3608710;39;20037;-65
2023/12/19 02:05:36;;;;;;;30.83;19.95;;;;;;;6.87;95.75;102200.06;3607057;39;20055;-65
2023/12/19 02:08:02;;;;;;;30.02;18.70;;;;;;;7.03;94.70;102220.16;3606252;39;20095;-65
2023/12/19 02:10:28;;;;;;;29.33;20.08;;;;;;;7.02;95.20;102218.41;3607859;39;20116;-65
2023/12/19 02:12:53;;;;;;;28.35;19.60;;;;;;;7.04;94.66;102221.94;3605256;39;20065;-65
2023/12/19 02:15:19;;;;;;;31.40;20.65;;;;;;;7.00;95.63;102220.25;3606484;39;20071;-65
2023/12/19 02:17:45;;;;;;;33.85;20.73;;;;;;;7.01;94.84;102215.75;3607063;39;20053;-65
2023/12/19 02:20:11;;;;;;;30.90;18.15;;;;;;;7.02;94.83;102206.84;3607450;39;20062;-65
2023/12/19 02:22:36;;;;;;;26.00;17.90;;;;;;;7.06;94.83;102198.69;3605786;39;20082;-65
2023/12/19 02:25:02;;;;;;;28.92;19.73;;;;;;;7.05;95.55;102191.59;3606710;39;20058;-65
2023/12/19 02:27:30;;;;;;;31.38;20.33;;;;;;;6.98;96.32;102171.31;3605823;39;20091;-65
2023/12/19 02:29:55;;;;;;;30.73;19.70;;;;;;;7.02;96.52;102178.31;3609090;39;20050;-64
2023/12/19 02:32:21;;;;;;;31.08;20.13;;;;;;;7.00;96.44;102185.47;3609305;39;20070;-64
2023/12/19 02:34:48;;;;;;;32.38;20.45;;;;;;;7.01;96.42;102178.34;3608934;39;20055;-65
2023/12/19 02:37:14;;;;;;;31.63;19.73;;;;;;;7.00;96.82;102185.47;3606926;39;20103;-65
2023/12/19 02:39:39;;;;;;;30.10;20.00;;;;;;;6.95;97.05;102182.06;3605673;39;20128;-65
2023/12/19 02:42:05;;;;;;;28.90;20.25;;;;;;;6.97;96.99;102182.88;3606140;39;20055;-65
2023/12/19 02:44:30;;;;;;;30.55;20.30;;;;;;;6.96;96.99;102184.69;3605718;39;20361;-65
2023/12/19 02:46:56;;;;;;;29.98;19.77;;;;;;;6.94;97.41;102177.63;3605899;39;20043;-65
2023/12/19 02:49:22;;;;;;;31.55;19.60;;;;;;;6.96;97.88;102183.81;3604847;39;20085;-65
2023/12/19 02:51:47;;;;;;;28.95;19.90;;;;;;;6.92;97.89;102180.34;3606071;39;20054;-64
2023/12/19 02:54:13;;;;;;;26.80;19.35;;;;;;;6.93;98.06;102174.06;3606781;39;20048;-64
2023/12/19 02:56:38;;;;;;;25.50;17.90;;;;;;;6.96;98.39;102167.78;3608884;39;20055;-64
2023/12/19 02:59:04;;;;;;;29.02;19.00;;;;;;;6.90;98.18;102158.09;3606026;39;20074;-64
2023/12/19 03:01:30;;;;;;;25.52;17.77;;;;;;;6.91;98.61;102161.66;3607156;39;20291;-64
2023/12/19 03:03:55;;;;;;;28.33;18.65;;;;;;;6.88;98.81;102132.31;3606954;39;20388;-63
2023/12/19 03:06:21;;;;;;;26.02;18.13;;;;;;;6.89;98.83;102134.09;3608971;39;20066;-64
2023/12/19 03:08:48;;;;;;;26.00;18.08;;;;;;;6.85;99.28;102135.06;3605683;39;20055;-64
2023/12/19 03:11:16;;;;;;;29.50;18.10;;;;;;;6.85;99.21;102127.97;3610308;39;20099;-64
2023/12/19 03:13:42;;;;;;;26.13;18.83;;;;;;;6.85;98.99;102127.97;3611778;39;20043;-64
2023/12/19 03:16:07;;;;;;;28.75;19.35;;;;;;;6.84;99.73;102125.31;3610630;39;20051;-63
2023/12/19 03:18:33;;;;;;;24.27;17.80;;;;;;;6.86;98.97;102119.03;3606844;39;20059;-64
2023/12/19 03:20:59;;;;;;;24.77;16.80;;;;;;;6.88;99.33;102110.94;3609123;39;20051;-64
2023/12/19 03:23:26;;;;;;;26.52;17.67;;;;;;;6.89;99.49;102107.38;3609236;39;20288;-64
2023/12/19 03:25:52;;;;;;;26.63;17.98;;;;;;;6.91;99.10;102108.19;3611693;39;20053;-64
2023/12/19 03:28:18;;;;;;;28.38;19.27;;;;;;;5.54;99.06;101875.75;3605474;39;20047;-64
2023/12/19 03:30:44;;;;;;;27.15;17.65;;;;;;;6.89;100.00;102099.34;3608012;39;20047;-64
2023/12/19 03:33:09;;;;;;;23.25;16.92;;;;;;;6.90;99.72;102082.38;3605648;39;20047;-64
2023/12/19 03:35:35;;;;;;;26.60;19.58;;;;;;;6.87;100.00;102071.78;3606746;39;20063;-64
2023/12/19 03:38:01;;;;;;;25.85;18.20;;;;;;;6.85;100.00;102063.81;3605036;39;20059;-64
2023/12/19 03:40:26;;;;;;;24.75;17.75;;;;;;;6.89;100.00;102065.47;3606728;39;20289;-64
2023/12/19 03:42:52;;;;;;;29.00;18.23;;;;;;;6.92;100.00;102067.22;3605619;39;20043;-64
2023/12/19 03:45:18;;;;;;;24.52;17.10;;;;;;;6.87;100.00;102061.09;3604298;39;20046;-64
2023/12/19 03:47:44;;;;;;;25.73;17.98;;;;;;;6.89;100.00;102059.28;3605814;39;20401;-64
2023/12/19 03:50:10;;;;;;;25.23;17.23;;;;;;;6.87;100.00;102059.28;3608426;39;20051;-64
2023/12/19 03:52:36;;;;;;;24.95;18.30;;;;;;;6.90;100.00;102064.56;3607815;39;20311;-64
2023/12/19 03:55:03;;;;;;;25.25;17.92;;;;;;;6.90;100.00;102069.03;3605355;39;20090;-64
2023/12/19 03:57:29;;;;;;;23.17;17.80;;;;;;;6.91;100.00;102057.41;3610008;39;20106;-64
2023/12/19 03:59:54;;;;;;;27.90;19.35;;;;;;;6.91;100.00;102057.41;3606026;39;20091;-64
2023/12/19 04:02:20;;;;;;;26.33;18.73;;;;;;;6.94;100.00;102047.50;3610740;39;20388;-64
2023/12/19 04:04:46;;;;;;;27.05;19.25;;;;;;;6.96;100.00;102039.47;3611817;39;20062;-64
2023/12/19 04:07:12;;;;;;;33.13;20.98;;;;;;;6.92;100.00;102033.31;3609925;39;20420;-64
2023/12/19 04:09:38;;;;;;;29.30;20.55;;;;;;;6.95;100.00;102035.03;3610384;39;20380;-64
2023/12/19 04:12:06;;;;;;;30.33;20.95;;;;;;;6.99;100.00;102058.09;3608398;39;20066;-63
2023/12/19 04:14:33;;;;;;;31.88;20.90;;;;;;;6.85;100.00;102014.81;3607651;39;20125;-64
2023/12/19 04:16:59;;;;;;;34.58;22.40;;;;;;;7.02;100.00;102044.66;3609192;39;20066;-64
2023/12/19 04:19:25;;;;;;;35.83;23.65;;;;;;;6.90;100.00;102018.25;3606691;39;20051;-64
2023/12/19 04:21:51;;;;;;;32.88;21.27;;;;;;;7.07;100.00;102032.03;3607419;39;20603;-64
2023/12/19 04:24:19;;;;;;;31.10;21.10;;;;;;;7.08;100.00;102031.09;3606264;39;20136;-64
2023/12/19 04:26:48;;;;;;;33.08;22.98;;;;;;;7.10;100.00;102025.69;3605927;39;20047;-64
2023/12/19 04:29:14;;;;;;;36.97;23.15;;;;;;;7.10;100.00;102007.84;3607726;39;20056;-64
2023/12/19 04:31:41;;;;;;;36.33;24.48;;;;;;;7.14;100.00;102004.19;3610079;39;20063;-64
2023/12/19 04:34:07;;;;;;;38.58;22.95;;;;;;;7.14;100.00;102001.53;3608407;39;20065;-64
2023/12/19 04:36:33;;;;;;;33.25;22.25;;;;;;;7.17;99.72;101985.41;3608919;39;20566;-64
2023/12/19 04:38:59;;;;;;;34.55;23.88;;;;;;;7.16;100.00;101988.97;3608378;39;20103;-64
2023/12/19 04:41:24;;;;;;;37.17;23.58;;;;;;;7.20;100.00;101984.44;3607553;39;20106;-64
2023/12/19 04:43:50;;;;;;;34.45;22.45;;;;;;;7.22;100.00;101983.44;3607145;39;20059;-64
2023/12/19 04:46:15;;;;;;;35.45;23.15;;;;;;;7.26;100.00;101967.31;3607727;39;20091;-64
2023/12/19 04:48:42;;;;;;;38.08;24.83;;;;;;;7.18;100.00;101949.69;3607883;39;20070;-64
2023/12/19 04:51:18;;;;;;;36.70;23.08;;;;;;;7.21;100.00;101952.28;3609108;39;20057;-64
2023/12/19 04:53:44;;;;;;;35.38;23.65;;;;;;;7.26;100.00;101953.94;3611091;39;20043;-64
2023/12/19 04:56:11;;;;;;;34.55;23.45;;;;;;;7.26;100.00;101941.44;3606843;39;20546;-64
2023/12/19 04:58:38;;;;;;;30.52;21.38;;;;;;;7.37;99.69;101946.47;3608655;39;20153;-64
2023/12/19 05:01:03;;;;;;;37.15;24.23;;;;;;;7.34;100.00;101944.75;3608295;39;20047;-64
2023/12/19 05:03:29;;;;;;;35.58;23.83;;;;;;;7.37;100.00;101946.47;3608408;39;20078;-64
2023/12/19 05:05:55;;;;;;;32.65;22.08;;;;;;;7.40;99.93;101933.00;3608192;39;20405;-64
2023/12/19 05:08:20;;;;;;;32.75;22.42;;;;;;;7.41;99.89;101945.44;3607896;39;20070;-64
2023/12/19 05:10:46;;;;;;;34.78;23.23;;;;;;;7.41;100.00;101951.66;3609199;39;20405;-64
2023/12/19 05:13:11;;;;;;;32.63;21.38;;;;;;;7.47;100.00;101944.41;3609102;39;20063;-64
2023/12/19 05:15:38;;;;;;;32.67;22.73;;;;;;;7.46;99.40;101954.22;3607674;39;20102;-64
2023/12/19 05:18:03;;;;;;;32.33;21.58;;;;;;;7.48;99.89;101952.34;3606767;39;20128;-64
2023/12/19 05:20:29;;;;;;;32.33;22.38;;;;;;;7.48;100.00;101957.72;3606908;39;20325;-64
2023/12/19 05:22:55;;;;;;;28.00;20.35;;;;;;;7.34;99.81;101935.88;3606015;39;20044;-65
2023/12/19 05:25:20;;;;;;;33.33;22.27;;;;;;;7.54;99.40;101962.88;3607480;39;20046;-64
2023/12/19 05:27:46;;;;;;;33.03;22.13;;;;;;;7.52;99.95;101954.03;3607399;39;20398;-64
2023/12/19 05:30:12;;;;;;;32.60;22.42;;;;;;;7.57;98.97;101956.56;3607448;39;20278;-65
2023/12/19 05:32:39;;;;;;;35.55;21.90;;;;;;;7.39;99.39;101915.19;3608762;39;20067;-64
2023/12/19 05:35:06;;;;;;;29.55;21.13;;;;;;;7.59;99.05;101950.25;3605445;39;20066;-64
2023/12/19 05:37:31;;;;;;;30.70;20.17;;;;;;;7.62;99.30;101949.28;3608216;39;20062;-64
2023/12/19 05:39:57;;;;;;;32.63;22.13;;;;;;;7.61;99.61;101942.16;3609886;39;20063;-64
2023/12/19 05:42:24;;;;;;;28.48;20.42;;;;;;;7.67;98.88;101953.56;3608221;39;20051;-64
2023/12/19 05:44:49;;;;;;;33.70;21.67;;;;;;;7.64;99.09;101942.97;3609388;39;20391;-64
2023/12/19 05:47:15;;;;;;;32.00;20.13;;;;;;;7.56;99.23;101922.72;3609969;39;20132;-64
2023/12/19 05:49:41;;;;;;;29.60;20.90;;;;;;;7.38;98.62;101871.50;3606284;39;20060;-64
2023/12/19 05:52:07;;;;;;;28.50;20.38;;;;;;;7.65;98.76;101920.63;3608854;39;20074;-64
2023/12/19 05:54:33;;;;;;;31.15;21.67;;;;;;;7.66;98.56;101914.31;3607517;39;20071;-64
2023/12/19 05:56:58;;;;;;;31.38;20.52;;;;;;;7.67;99.02;101916.09;3605450;39;20062;-64
2023/12/19 05:59:24;;;;;;;30.20;20.98;;;;;;;7.70;99.31;101906.19;3606328;39;20066;-64
2023/12/19 06:01:50;;;;;;;29.95;20.55;;;;;;;7.71;98.41;101918.63;3606975;39;20062;-64
2023/12/19 06:04:15;;;;;;;26.95;20.55;;;;;;;7.71;98.55;101913.28;3608398;39;20375;-64
2023/12/19 06:06:44;;;;;;;28.80;19.83;;;;;;;7.72;99.06;101918.59;3605983;39;20054;-64
2023/12/19 06:09:13;;;;;;;26.65;18.98;;;;;;;7.75;98.31;101914.97;3606775;39;20050;-64
2023/12/19 06:11:39;;;;;;;25.70;19.48;;;;;;;7.77;97.66;101899.72;3604715;39;20303;-65
2023/12/19 06:14:06;;;;;;;26.13;18.75;;;;;;;7.75;98.26;101898.91;3604331;39;20055;-64
2023/12/19 06:16:32;;;;;;;27.02;18.70;;;;;;;7.76;98.20;101897.97;3606355;39;20049;-64
2023/12/19 06:18:59;;;;;;;25.65;18.92;;;;;;;7.72;97.66;101896.31;3604054;39;20078;-64
2023/12/19 06:21:25;;;;;;;24.70;18.23;;;;;;;7.78;97.82;101904.16;3604569;39;20046;-64
2023/12/19 06:23:50;;;;;;;29.50;19.40;;;;;;;7.82;97.39;101903.13;3606923;39;20059;-65
2023/12/19 06:26:16;;;;;;;26.95;18.30;;;;;;;7.81;97.18;101896.03;3606832;39;20057;-64
2023/12/19 06:28:42;;;;;;;27.92;18.15;;;;;;;7.81;97.66;101901.38;3607393;39;20177;-64
2023/12/19 06:31:07;;;;;;;24.17;18.38;;;;;;;7.83;97.16;101895.06;3604086;39;20060;-64
2023/12/19 06:33:34;;;;;;;22.60;17.52;;;;;;;7.84;97.23;101891.44;3604003;39;20063;-64
2023/12/19 06:36:00;;;;;;;29.13;18.00;;;;;;;7.86;97.91;101902.09;3604387;39;20043;-64
2023/12/19 06:38:26;;;;;;;24.80;18.08;;;;;;;7.89;97.31;101896.63;3605671;39;20066;-64
2023/12/19 06:40:51;;;;;;;22.00;17.02;;;;;;;7.91;97.95;101898.34;3604741;39;20055;-64
2023/12/19 06:43:17;;;;;;;24.67;17.23;;;;;;;7.91;97.71;101892.97;3605741;39;20047;-64
2023/12/19 06:45:43;;;;;;;26.30;16.70;;;;;;;7.96;97.37;101890.16;3604936;39;20047;-65
2023/12/19 06:48:08;;;;;;;23.40;16.75;;;;;;;7.95;97.50;101877.69;3603908;39;20062;-64
2023/12/19 06:50:34;;;;;;;22.23;16.73;;;;;;;7.97;96.27;101894.59;3607637;39;20059;-65
2023/12/19 06:53:00;;;;;;;25.95;16.85;;;;;;;7.88;97.03;101882.38;3606913;39;20070;-64
2023/12/19 06:55:27;;;;;;;21.85;15.43;;;;;;;8.03;97.20;101906.91;3605439;39;20051;-64
2023/12/19 06:57:53;;;;;;;27.27;17.00;;;;;;;8.01;96.02;101887.31;3604606;39;20124;-64
2023/12/19 07:00:18;;;;;;;21.55;16.17;;;;;;;8.00;96.89;101891.81;3604925;39;20055;-64
2023/12/19 07:02:44;;;;;;;22.05;16.60;;;;;;;8.02;96.72;101881.91;3608036;39;20062;-64
2023/12/19 07:05:10;;;;;;;24.38;15.57;;;;;;;8.07;96.50;101876.41;3605317;39;20310;-65
2023/12/19 07:07:36;;;;;;;18.65;14.00;;;;;;;8.08;95.21;101878.13;3605165;39;20075;-64
2023/12/19 07:10:03;;;;;;;19.42;14.80;;;;;;;8.08;96.06;101879.00;3606641;39;20388;-65
2023/12/19 07:12:29;;;;;;;22.58;15.32;;;;;;;8.08;96.07;101868.28;3606191;39;20121;-64
2023/12/19 07:14:55;;;;;;;23.17;15.77;;;;;;;8.05;96.46;101860.38;3607354;39;20050;-65
2023/12/19 07:17:22;;;;;;;21.92;14.70;;;;;;;8.08;96.25;101868.28;3605820;39;20123;-64
2023/12/19 07:19:47;;;;;;;21.42;14.68;;;;;;;8.09;96.16;101871.88;3605427;39;20320;-64
2023/12/19 07:22:13;;;;;;;22.63;16.25;;;;;;;8.08;95.77;101868.28;3609756;39;20051;-64
2023/12/19 07:24:39;;;;;;;21.30;16.40;;;;;;;7.99;96.01;101847.22;3607242;39;20073;-64
2023/12/19 07:27:05;;;;;;;43.40;24.55;;;;;;;7.90;95.51;101810.94;3605653;39;20054;-64
2023/12/19 07:29:31;;;;;;;28.67;17.50;;;;;;;8.18;95.09;101852.78;3604800;39;20039;-64
2023/12/19 07:31:58;;;;;;;22.23;15.80;;;;;;;8.18;95.08;101855.47;3606560;39;20054;-64
2023/12/19 07:34:24;;;;;;;20.63;14.35;;;;;;;8.19;95.12;101861.72;3605841;39;20147;-65
2023/12/19 07:36:51;;;;;;;20.10;13.82;;;;;;;8.21;94.63;101851.81;3604398;39;20078;-65
2023/12/19 07:39:16;;;;;;;19.02;14.02;;;;;;;8.18;94.87;101852.78;3606850;39;20070;-65
2023/12/19 07:41:42;;;;;;;17.88;13.85;;;;;;;8.19;95.73;101853.69;3603631;39;20063;-64
2023/12/19 07:44:09;;;;;;;20.38;14.05;;;;;;;8.22;95.33;101864.28;3604290;39;20443;-64
2023/12/19 07:46:44;;;;;;;18.83;13.88;;;;;;;8.20;95.00;101863.44;3602364;39;20120;-65
2023/12/19 07:49:10;;;;;;;20.17;14.02;;;;;;;8.25;95.17;101869.53;3604407;39;20061;-65
2023/12/19 07:51:36;;;;;;;21.88;13.57;;;;;;;8.23;94.61;101858.00;3607630;39;20056;-65
2023/12/19 07:54:02;;;;;;;19.30;14.40;;;;;;;8.25;94.54;101856.16;3604441;39;20066;-64
2023/12/19 07:56:27;;;;;;;16.70;12.38;;;;;;;8.26;94.37;101847.16;3604523;39;20047;-64
2023/12/19 07:58:53;;;;;;;18.58;12.85;;;;;;;8.29;94.17;101841.69;3602852;39;20055;-64
2023/12/19 08:01:19;;;;;;;16.13;12.57;;;;;;;8.30;93.85;101844.31;3604998;39;20388;-64
2023/12/19 08:03:45;;;;;;;18.45;11.93;;;;;;;8.30;94.34;101848.78;3604151;39;20051;-64
2023/12/19 08:06:11;;;;;;;19.08;12.50;;;;;;;8.29;94.50;101833.66;3607056;39;20079;-64
2023/12/19 08:08:37;;;;;;;17.58;12.85;;;;;;;8.33;93.57;101835.28;3604862;39;20206;-64
2023/12/19 08:11:03;;;;;;;17.13;12.52;;;;;;;8.29;93.90;101833.66;3595823;39;20059;-65
2023/12/19 08:13:29;;;;;;;19.60;13.00;;;;;;;8.25;94.95;101822.19;3605514;39;20151;-65
2023/12/19 08:15:55;;;;;;;18.55;13.38;;;;;;;8.24;95.96;101824.91;3607066;39;20269;-65
2023/12/19 08:18:21;;;;;;;17.50;12.65;;;;;;;7.95;95.88;101781.31;3604200;39;20099;-65
2023/12/19 08:20:47;;;;;;;20.00;14.27;;;;;;;8.18;96.60;101830.47;3607438;39;20051;-64
2023/12/19 08:23:13;;;;;;;22.38;14.05;;;;;;;8.13;96.88;101828.84;3604807;39;20058;-64
2023/12/19 08:25:41;;;;;;;20.05;13.68;;;;;;;8.10;97.57;101820.06;3602546;39;20077;-65
2023/12/19 08:28:08;;;;;;;18.45;13.55;;;;;;;8.08;97.82;101829.94;3604841;39;20514;-65
2023/12/19 08:30:34;;;;;;;19.75;14.07;;;;;;;8.05;98.53;101822.00;3608520;39;20071;-65
2023/12/19 08:33:00;;;;;;;19.70;14.07;;;;;;;7.97;98.69;101810.72;3605648;39;20066;-65
2023/12/19 08:35:26;;;;;;;18.48;14.55;;;;;;;8.05;99.62;101822.00;3609204;39;20343;-65
2023/12/19 08:37:52;;;;;;;17.95;13.88;;;;;;;7.87;99.71;101807.50;3605702;39;20051;-64
2023/12/19 08:40:21;;;;;;;20.85;14.02;;;;;;;7.98;99.31;101834.75;3605754;39;20050;-65
2023/12/19 08:42:50;;;;;;;20.55;14.70;;;;;;;7.99;100.00;101835.63;3604921;39;20096;-65
2023/12/19 08:45:18;;;;;;;20.95;14.82;;;;;;;7.98;100.00;101821.34;3604924;39;20070;-65
2023/12/19 08:47:45;;;;;;;20.02;15.10;;;;;;;7.66;100.00;101768.94;3605498;39;20152;-65
2023/12/19 08:50:12;;;;;;;20.33;14.68;;;;;;;7.96;100.00;101820.56;3607589;39;20092;-65
2023/12/19 08:52:40;;;;;;;20.08;14.23;;;;;;;7.96;100.00;101823.22;3606153;39;20465;-66
2023/12/19 08:55:10;;;;;;;23.67;16.13;;;;;;;7.93;100.00;101815.31;3608426;39;20571;-65
2023/12/19 08:57:44;;;;;;;20.73;15.10;;;;;;;7.15;100.00;101682.41;3611036;39;20047;-65
2023/12/19 09:00:17;;;;;;;23.52;16.45;;;;;;;7.88;100.00;101807.41;3609536;39;20046;-65
2023/12/19 09:02:43;;;;;;;19.58;14.23;;;;;;;7.97;100.00;101821.44;3610533;39;20448;-65
2023/12/19 09:05:15;;;;;;;23.02;16.42;;;;;;;7.93;100.00;101811.72;3607054;39;20063;-65
2023/12/19 09:07:42;;;;;;;20.60;14.75;;;;;;;7.93;100.00;101809.94;3605126;39;20369;-65
2023/12/19 09:10:11;;;;;;;20.88;14.10;;;;;;;7.94;100.00;101810.81;3606114;39;20128;-65
2023/12/19 09:12:37;;;;;;;18.30;13.57;;;;;;;7.97;100.00;101800.88;3605524;39;20097;-65
2023/12/19 09:15:06;;;;;;;21.27;13.93;;;;;;;7.92;100.00;101792.13;3606699;39;20045;-65
2023/12/19 09:17:32;;;;;;;19.80;13.32;;;;;;;7.88;100.00;101802.06;3606840;39;20050;-64
2023/12/19 09:19:59;;;;;;;16.25;12.18;;;;;;;7.89;100.00;101785.06;3606820;39;20046;-67
2023/12/19 09:22:25;;;;;;;20.08;13.40;;;;;;;7.93;100.00;101783.19;3605847;39;20039;-64
2023/12/19 09:24:52;;;;;;;17.00;12.32;;;;;;;7.92;100.00;101781.41;3608923;39;20090;-64
2023/12/19 09:27:17;;;;;;;17.85;12.98;;;;;;;7.93;100.00;101783.19;3609710;39;20059;-64
2023/12/19 09:29:43;;;;;;;17.13;12.18;;;;;;;7.94;100.00;101784.91;3607002;39;20838;-64
2023/12/19 09:32:09;;;;;;;15.82;12.85;;;;;;;7.95;100.00;101785.78;3606209;39;20058;-65
2023/12/19 09:34:37;;;;;;;13.65;10.95;;;;;;;7.96;100.00;101788.44;3606361;39;20054;-65
2023/12/19 09:37:04;;;;;;;13.80;10.48;;;;;;;8.00;100.00;101779.34;3607400;39;20063;-65
2023/12/19 09:39:30;;;;;;;14.70;11.48;;;;;;;7.97;100.00;101784.81;3608671;39;20055;-63
2023/12/19 09:41:58;;;;;;;17.27;12.07;;;;;;;7.99;100.00;101782.06;3607185;39;21237;-63
2023/12/19 09:44:26;;;;;;;13.40;10.85;;;;;;;7.98;100.00;101774.97;3605798;39;20317;-63
2023/12/19 09:46:52;;;;;;;13.65;10.73;;;;;;;7.99;100.00;101761.53;3607138;39;20125;-63
2023/12/19 09:49:24;;;;;;;13.80;10.57;;;;;;;8.00;100.00;101768.63;3606550;39;20055;-63
2023/12/19 09:51:53;;;;;;;12.52;10.23;;;;;;;8.01;100.00;101761.47;3608465;39;20055;-64
2023/12/19 09:54:21;;;;;;;13.57;10.05;;;;;;;7.98;100.00;101759.78;3608684;39;20046;-65
2023/12/19 09:56:48;;;;;;;11.88;9.77;;;;;;;8.01;100.00;101759.66;3606303;39;20046;-64
2023/12/19 09:59:20;;;;;;;13.32;8.95;;;;;;;8.02;100.00;101748.00;3608364;39;20059;-64
2023/12/19 10:01:46;;;;;;;11.15;9.50;;;;;;;8.01;100.00;101748.09;3608805;39;20066;-64
2023/12/19 10:04:16;;;;;;;10.73;8.70;;;;;;;7.94;100.00;101734.06;3605156;39;20307;-65
2023/12/19 10:07:01;;;;;;;10.05;8.90;;;;;;;8.00;100.00;101741.88;3608290;39;20067;-65
2023/12/19 10:09:27;;;;;;;10.40;9.00;;;;;;;7.96;100.00;101729.53;3609890;39;20059;-65
2023/12/19 10:12:12;;;;;;;10.18;8.70;;;;;;;7.99;100.00;101726.75;3604880;39;20061;-65
2023/12/19 10:14:38;;;;;;;11.13;9.02;;;;;;;8.04;100.00;101742.63;3604769;39;20102;-65
2023/12/19 10:17:12;;;;;;;11.13;9.30;;;;;;;8.05;100.00;101736.31;3607062;39;20054;-64
2023/12/19 10:19:38;;;;;;;11.35;9.15;;;;;;;8.07;100.00;101727.31;3607352;39;21060;-65
2023/12/19 10:22:09;;;;;;;10.25;8.27;;;;;;;7.93;100.00;101708.22;3606980;39;20075;-66
2023/12/19 10:24:35;;;;;;;10.90;9.02;;;;;;;8.11;100.00;101739.66;3605298;39;20051;-65
2023/12/19 10:27:05;;;;;;;8.93;7.47;;;;;;;8.14;100.00;101731.50;3606369;39;20050;-65
2023/12/19 10:29:36;;;;;;;12.48;9.63;;;;;;;8.15;100.00;101732.41;3607062;39;20032;-65
2023/12/19 10:32:19;;;;;;;13.38;9.65;;;;;;;7.95;100.00;101684.91;3605514;39;20407;-65
2023/12/19 10:34:54;;;;;;;11.75;8.30;;;;;;;8.11;100.00;101702.16;3607897;39;20093;-66
2023/12/19 10:37:21;;;;;;;10.32;9.20;;;;;;;8.14;100.00;101701.19;3605310;39;20276;-66
2023/12/19 10:39:49;;;;;;;13.07;9.85;;;;;;;7.93;100.00;101659.13;3606291;39;20067;-65
2023/12/19 10:42:18;;;;;;;13.50;9.75;;;;;;;8.14;100.00;101680.63;3609940;39;20116;-65
2023/12/19 10:44:47;;;;;;;11.65;9.10;;;;;;;8.14;100.00;101683.28;3595159;39;20063;-65
2023/12/19 10:47:13;;;;;;;13.82;9.38;;;;;;;8.18;100.00;101686.72;3596808;39;20043;-65
2023/12/19 10:49:39;;;;;;;11.50;9.25;;;;;;;8.18;100.00;101689.41;3606766;39;20136;-65
2023/12/19 10:52:09;;;;;;;13.02;9.48;;;;;;;7.96;100.00;101643.84;3607155;39;20051;-65
2023/12/19 10:54:40;;;;;;;16.30;11.13;;;;;;;7.96;100.00;101632.25;3607900;39;20050;-65
2023/12/19 10:57:16;;;;;;;11.68;9.73;;;;;;;8.20;100.00;101652.72;3607624;39;20058;-65
2023/12/19 11:00:09;;;;;;;13.73;9.82;;;;;;;8.21;100.00;101643.75;3605518;39;20055;-65
2023/12/19 11:03:06;;;;;;;11.93;10.07;;;;;;;8.24;100.00;101645.44;3607862;39;20053;-65
2023/12/19 11:05:47;;;;;;;10.02;8.88;;;;;;;8.30;100.00;101631.81;3604938;39;20288;-65
2023/12/19 11:08:16;;;;;;;11.70;9.18;;;;;;;8.28;100.00;101612.28;3607477;39;20051;-65
2023/12/19 11:11:10;;;;;;;11.88;9.45;;;;;;;8.29;100.00;101619.38;3606445;39;20083;-64
2023/12/19 11:13:37;;;;;;;;;;;;;;;8.22;100.00;101601.81;3605673;39;20108;-65